createdAt,value
2023-05-20T00:02:47.227Z,64.54
2023-05-20T00:05:49.666Z,64.57
2023-05-20T00:08:52.134Z,64.58
2023-05-20T00:11:54.558Z,64.37
2023-05-20T00:14:57.017Z,64.51
2023-05-20T00:18:01.265Z,64.43
2023-05-20T00:21:03.802Z,64.58
2023-05-20T00:24:06.424Z,64.48
2023-05-20T00:27:08.938Z,64.73
2023-05-20T00:30:11.729Z,64.35
2023-05-20T00:33:14.308Z,64.37
2023-05-20T00:36:16.853Z,64.79
2023-05-20T00:39:19.375Z,64.93
2023-05-20T00:42:27.034Z,64.76
2023-05-20T00:45:29.552Z,64.67
2023-05-20T00:48:41.315Z,64.81
2023-05-20T00:51:43.804Z,64.82
2023-05-20T00:54:46.416Z,64.45
2023-05-20T00:57:49.649Z,64.74
2023-05-20T01:00:52.148Z,64.71
2023-05-20T01:03:54.689Z,64.86
2023-05-20T01:06:58.301Z,64.43
2023-05-20T01:10:01.159Z,64.91
2023-05-20T01:13:06.296Z,64.76
2023-05-20T01:16:09.473Z,65.04
2023-05-20T01:19:44.249Z,64.80
2023-05-20T01:22:53.332Z,64.82
2023-05-20T01:25:56.897Z,65.08
2023-05-20T01:29:04.408Z,64.79
2023-05-20T01:32:14.190Z,65.15
2023-05-20T01:35:17.382Z,65.01
2023-05-20T01:38:20.932Z,64.89
2023-05-20T01:41:27.210Z,64.72
2023-05-20T01:44:30.421Z,64.77
2023-05-20T01:47:32.900Z,64.81
2023-05-20T01:50:36.202Z,64.75
2023-05-20T01:53:39.816Z,64.97
2023-05-20T01:56:45.204Z,64.94
2023-05-20T01:59:47.719Z,64.90
2023-05-20T02:02:50.318Z,64.99
2023-05-20T02:05:54.181Z,64.86
2023-05-20T02:08:58.745Z,64.81
2023-05-20T02:12:02.169Z,64.76
2023-05-20T02:15:05.202Z,64.89
2023-05-20T02:18:08.619Z,64.58
2023-05-20T02:21:11.275Z,64.71
2023-05-20T02:24:13.827Z,64.85
2023-05-20T02:27:16.394Z,64.67
2023-05-20T02:30:19.121Z,64.66
2023-05-20T02:33:21.647Z,64.75
2023-05-20T02:36:24.415Z,64.83
2023-05-20T02:39:28.550Z,64.92
2023-05-20T02:42:31.345Z,64.90
2023-05-20T02:45:33.835Z,64.84
2023-05-20T02:48:36.244Z,64.63
2023-05-20T02:51:38.672Z,64.61
2023-05-20T02:54:41.426Z,64.34
2023-05-20T02:57:44.013Z,64.80
2023-05-20T03:00:46.722Z,64.50
2023-05-20T03:03:49.337Z,64.67
2023-05-20T03:06:53.717Z,64.75
2023-05-20T03:09:59.280Z,64.68
2023-05-20T03:13:01.748Z,64.44
2023-05-20T03:16:04.842Z,64.61
2023-05-20T03:19:07.955Z,64.59
2023-05-20T03:22:11.762Z,64.66
2023-05-20T03:25:14.483Z,64.44
2023-05-20T03:28:17.364Z,64.55
2023-05-20T03:31:20.504Z,64.77
2023-05-20T03:34:23.082Z,64.46
2023-05-20T03:37:25.820Z,64.38
2023-05-20T03:40:28.580Z,64.25
2023-05-20T03:43:31.115Z,64.18
2023-05-20T03:46:34.546Z,64.48
2023-05-20T03:49:39.698Z,64.35
2023-05-20T03:52:42.118Z,64.21
2023-05-20T03:55:44.656Z,64.31
2023-05-20T03:58:50.826Z,64.03
2023-05-20T04:01:53.939Z,63.96
2023-05-20T04:04:57.904Z,64.39
2023-05-20T04:08:00.876Z,63.93
2023-05-20T04:11:03.559Z,63.93
2023-05-20T04:14:05.993Z,63.83
2023-05-20T04:17:09.880Z,64.14
2023-05-20T04:20:12.756Z,63.75
2023-05-20T04:23:15.315Z,63.67
2023-05-20T04:26:18.040Z,63.77
2023-05-20T04:29:23.254Z,63.53
2023-05-20T04:32:27.496Z,63.46
2023-05-20T04:35:30.845Z,63.34
2023-05-20T04:38:38.776Z,63.55
2023-05-20T04:41:41.488Z,63.08
2023-05-20T04:44:46.314Z,63.08
2023-05-20T04:47:49.267Z,62.77
2023-05-20T04:50:52.859Z,62.83
2023-05-20T04:53:55.268Z,62.69
2023-05-20T04:56:57.801Z,62.43
2023-05-20T05:00:00.947Z,62.53
2023-05-20T05:03:04.438Z,62.26
2023-05-20T05:06:07.911Z,62.32
2023-05-20T05:09:10.335Z,61.90
2023-05-20T05:12:16.955Z,62.07
2023-05-20T05:15:19.471Z,61.64
2023-05-20T05:18:23.003Z,61.59
2023-05-20T05:21:26.611Z,61.57
2023-05-20T05:24:30.077Z,61.20
2023-05-20T05:27:33.076Z,60.97
2023-05-20T05:30:37.626Z,60.94
2023-05-20T05:33:40.990Z,60.95
2023-05-20T05:36:43.383Z,60.71
2023-05-20T05:39:45.975Z,60.54
2023-05-20T05:42:48.658Z,60.61
2023-05-20T05:45:51.152Z,60.61
2023-05-20T05:48:54.009Z,60.32
2023-05-20T05:51:56.921Z,60.04
2023-05-20T05:55:00.348Z,59.63
2023-05-20T05:58:03.132Z,59.73
2023-05-20T06:01:06.987Z,59.22
2023-05-20T06:04:09.635Z,59.48
2023-05-20T06:07:12.307Z,59.08
2023-05-20T06:10:14.896Z,58.92
2023-05-20T06:13:20.953Z,58.59
2023-05-20T06:16:23.517Z,58.11
2023-05-20T06:19:27.338Z,57.66
2023-05-20T06:22:31.045Z,57.55
2023-05-20T06:25:33.794Z,57.15
2023-05-20T06:28:37.000Z,56.79
2023-05-20T06:31:39.571Z,56.27
2023-05-20T06:34:42.043Z,55.93
2023-05-20T06:37:44.754Z,55.08
2023-05-20T06:40:49.157Z,54.41
2023-05-20T06:43:53.417Z,54.10
2023-05-20T06:47:26.930Z,53.42
2023-05-20T06:50:29.546Z,52.66
2023-05-20T06:53:32.024Z,52.35
2023-05-20T06:56:35.334Z,51.76
2023-05-20T06:59:38.100Z,51.38
2023-05-20T07:02:42.901Z,51.00
2023-05-20T07:05:48.161Z,50.50
2023-05-20T07:08:50.868Z,50.22
2023-05-20T07:11:54.071Z,49.78
2023-05-20T07:14:56.974Z,49.38
2023-05-20T07:17:59.721Z,48.92
2023-05-20T07:21:02.765Z,48.79
2023-05-20T07:24:18.537Z,48.75
2023-05-20T07:27:34.126Z,48.37
2023-05-20T07:30:37.167Z,48.36
2023-05-20T07:33:53.792Z,48.50
2023-05-20T07:36:58.395Z,48.34
2023-05-20T07:40:01.471Z,48.17
2023-05-20T07:43:04.043Z,48.46
2023-05-20T07:46:06.986Z,48.45
2023-05-20T07:49:09.718Z,48.46
2023-05-20T07:52:12.196Z,48.63
2023-05-20T07:55:15.353Z,48.78
2023-05-20T07:58:18.410Z,49.06
2023-05-20T08:01:21.407Z,48.99
2023-05-20T08:04:24.427Z,49.44
2023-05-20T08:07:27.376Z,49.62
2023-05-20T08:10:31.528Z,49.74
2023-05-20T08:13:34.042Z,50.51
2023-05-20T08:16:37.883Z,50.67
2023-05-20T08:19:41.420Z,51.02
2023-05-20T08:22:43.895Z,51.48
2023-05-20T08:25:48.349Z,52.02
2023-05-20T08:28:52.253Z,52.14
2023-05-20T08:31:55.739Z,52.58
2023-05-20T08:35:01.961Z,52.46
2023-05-20T08:38:04.421Z,53.00
2023-05-20T08:41:06.849Z,53.12
2023-05-20T08:44:11.769Z,53.32
2023-05-20T08:47:14.994Z,53.49
2023-05-20T08:50:18.172Z,53.57
2023-05-20T08:53:22.638Z,53.86
2023-05-20T08:56:30.040Z,53.94
2023-05-20T08:59:33.894Z,54.07
2023-05-20T09:02:40.167Z,54.33
2023-05-20T09:05:43.988Z,54.30
2023-05-20T09:08:48.763Z,54.29
2023-05-20T09:11:51.271Z,54.52
2023-05-20T09:14:53.793Z,54.46
2023-05-20T09:17:56.534Z,54.91
2023-05-20T09:21:06.928Z,54.69
2023-05-20T09:24:09.524Z,54.87
2023-05-20T09:27:11.997Z,55.18
2023-05-20T09:30:15.317Z,54.88
2023-05-20T09:33:18.252Z,54.91
2023-05-20T09:36:22.806Z,55.14
2023-05-20T09:39:26.196Z,55.33
2023-05-20T09:42:38.568Z,55.45
2023-05-20T09:45:41.507Z,55.55
2023-05-20T09:48:44.509Z,55.07
2023-05-20T09:51:48.226Z,55.60
2023-05-20T09:54:51.254Z,55.57
2023-05-20T09:57:54.522Z,55.70
2023-05-20T10:00:57.518Z,55.61
2023-05-20T10:04:01.610Z,55.76
2023-05-20T10:07:37.862Z,55.69
2023-05-20T10:10:59.047Z,55.83
2023-05-20T10:17:50.620Z,55.87
2023-05-20T10:20:53.542Z,56.13
2023-05-20T10:24:06.696Z,56.22
2023-05-20T10:27:11.644Z,56.04
2023-05-20T10:30:18.696Z,55.99
2023-05-20T10:33:21.220Z,56.11
2023-05-20T10:36:26.398Z,56.06
2023-05-20T10:39:30.139Z,56.25
2023-05-20T10:42:33.748Z,56.27
2023-05-20T10:45:37.521Z,56.33
2023-05-20T10:48:42.484Z,56.36
2023-05-20T10:51:47.538Z,56.38
2023-05-20T10:54:58.542Z,56.35
2023-05-20T10:58:01.205Z,56.55
2023-05-20T11:01:03.859Z,56.82
2023-05-20T11:04:06.889Z,56.51
2023-05-20T11:07:09.525Z,56.52
2023-05-20T11:10:12.251Z,56.50
2023-05-20T11:13:15.653Z,56.82
2023-05-20T11:16:18.251Z,56.52
2023-05-20T11:19:21.590Z,56.45
2023-05-20T11:22:24.087Z,56.73
2023-05-20T11:25:28.375Z,56.65
2023-05-20T11:28:31.178Z,56.73
2023-05-20T11:31:34.738Z,57.02
2023-05-20T11:34:38.179Z,56.56
2023-05-20T11:37:41.988Z,56.80
2023-05-20T11:40:55.408Z,56.92
2023-05-20T11:44:01.211Z,56.76
2023-05-20T11:47:04.280Z,56.85
2023-05-20T11:50:09.692Z,56.85
2023-05-20T11:53:16.955Z,56.73
2023-05-20T11:56:21.913Z,56.74
2023-05-20T11:59:25.260Z,56.92
2023-05-20T12:02:27.842Z,56.86
2023-05-20T12:05:30.604Z,56.82
2023-05-20T12:08:33.204Z,56.86
2023-05-20T12:11:42.596Z,56.76
2023-05-20T12:14:45.020Z,57.07
2023-05-20T12:17:53.034Z,56.86
2023-05-20T12:20:55.609Z,57.04
2023-05-20T12:23:59.820Z,56.90
2023-05-20T12:27:04.190Z,57.05
2023-05-20T12:30:07.963Z,57.12
2023-05-20T12:33:10.589Z,56.93
2023-05-20T12:36:13.344Z,56.84
2023-05-20T12:39:18.589Z,57.15
2023-05-20T12:42:21.418Z,57.13
2023-05-20T12:45:24.407Z,57.31
2023-05-20T12:48:27.012Z,56.94
2023-05-20T12:51:29.550Z,57.19
2023-05-20T12:54:32.312Z,56.96
2023-05-20T12:57:34.728Z,57.13
2023-05-20T13:00:37.468Z,57.29
2023-05-20T13:03:41.684Z,57.17
2023-05-20T13:06:44.249Z,57.16
2023-05-20T13:09:46.742Z,57.27
2023-05-20T13:12:49.309Z,57.17
2023-05-20T13:15:51.801Z,57.13
2023-05-20T13:18:55.472Z,57.55
2023-05-20T13:21:58.059Z,57.31
2023-05-20T13:25:01.020Z,57.09
2023-05-20T13:28:05.084Z,57.24
2023-05-20T13:31:07.616Z,57.23
2023-05-20T13:34:10.409Z,57.41
2023-05-20T13:37:12.818Z,57.23
2023-05-20T13:40:15.452Z,57.09
2023-05-20T13:43:17.916Z,57.36
2023-05-20T13:46:20.446Z,57.36
2023-05-20T13:49:23.009Z,57.31
2023-05-20T13:52:25.563Z,57.55
2023-05-20T13:55:28.446Z,57.22
2023-05-20T13:58:32.271Z,57.38
2023-05-20T14:01:34.755Z,57.24
2023-05-20T14:04:41.176Z,57.36
2023-05-20T14:07:43.887Z,57.27
2023-05-20T14:10:46.484Z,57.31
2023-05-20T14:13:48.955Z,57.49
2023-05-20T14:16:51.493Z,57.25
2023-05-20T14:19:54.042Z,57.39
2023-05-20T14:22:56.526Z,57.35
2023-05-20T14:25:59.328Z,57.48
2023-05-20T14:29:01.925Z,57.35
2023-05-20T14:32:05.488Z,57.41
2023-05-20T14:35:08.394Z,57.45
2023-05-20T14:38:11.030Z,57.23
2023-05-20T14:41:13.446Z,57.31
2023-05-20T14:44:16.502Z,57.20
2023-05-20T14:47:22.522Z,57.31
2023-05-20T14:50:26.056Z,57.37
2023-05-20T14:53:28.687Z,57.14
2023-05-20T14:56:31.511Z,57.30
2023-05-20T14:59:34.303Z,57.34
2023-05-20T15:02:36.806Z,57.48
2023-05-20T15:05:41.753Z,57.36
2023-05-20T15:08:44.287Z,57.37
2023-05-20T15:11:46.879Z,57.29
2023-05-20T15:14:50.098Z,57.44
2023-05-20T15:17:52.653Z,57.53
2023-05-20T15:20:57.152Z,57.49
2023-05-20T15:23:59.659Z,57.23
2023-05-20T15:27:04.418Z,57.45
2023-05-20T15:30:07.419Z,57.46
2023-05-20T15:33:10.061Z,57.32
2023-05-20T15:36:13.148Z,57.63
2023-05-20T15:39:15.670Z,57.63
2023-05-20T15:42:19.415Z,57.52
2023-05-20T15:45:21.893Z,57.39
2023-05-20T15:48:24.347Z,57.34
2023-05-20T15:51:27.637Z,57.42
2023-05-20T15:54:30.166Z,57.49
2023-05-20T15:57:32.729Z,57.33
2023-05-20T16:00:35.410Z,57.38
2023-05-20T16:03:38.253Z,57.50
2023-05-20T16:06:40.829Z,57.69
2023-05-20T16:09:43.648Z,57.34
2023-05-20T16:12:47.286Z,57.44
2023-05-20T16:15:51.204Z,57.51
2023-05-20T16:18:54.056Z,57.41
2023-05-20T16:21:56.518Z,57.42
2023-05-20T16:24:59.077Z,57.56
2023-05-20T16:28:01.511Z,57.50
2023-05-20T16:31:04.358Z,57.26
2023-05-20T16:34:09.037Z,57.57
2023-05-20T16:37:12.381Z,57.51
2023-05-20T16:40:15.108Z,57.47
2023-05-20T16:43:17.748Z,57.52
2023-05-20T16:46:20.371Z,57.56
2023-05-20T16:49:22.911Z,57.54
2023-05-20T16:52:27.695Z,57.66
2023-05-20T16:55:30.208Z,57.62
2023-05-20T16:58:32.743Z,57.76
2023-05-20T17:01:37.015Z,57.65
2023-05-20T17:04:39.709Z,57.53
2023-05-20T17:07:42.302Z,57.77
2023-05-20T17:10:45.371Z,57.76
2023-05-20T17:13:47.767Z,57.57
2023-05-20T17:16:50.187Z,57.57
2023-05-20T17:19:52.945Z,57.77
2023-05-20T17:22:55.666Z,57.46
2023-05-20T17:25:58.242Z,57.50
2023-05-20T17:29:01.857Z,57.63
2023-05-20T17:32:05.746Z,57.69
2023-05-20T17:35:08.855Z,57.93
2023-05-20T17:38:11.378Z,57.70
2023-05-20T17:41:13.906Z,57.56
2023-05-20T17:44:16.319Z,57.54
2023-05-20T17:47:18.994Z,57.64
2023-05-20T17:50:21.568Z,57.96
2023-05-20T17:53:24.021Z,57.96
2023-05-20T17:56:26.854Z,57.69
2023-05-20T17:59:29.850Z,57.99
2023-05-20T18:02:32.465Z,58.03
2023-05-20T18:05:35.355Z,57.96
2023-05-20T18:08:38.534Z,57.99
2023-05-20T18:11:43.562Z,57.78
2023-05-20T18:14:46.413Z,58.01
2023-05-20T18:17:48.953Z,57.85
2023-05-20T18:20:51.622Z,58.03
2023-05-20T18:23:54.209Z,58.08
2023-05-20T18:26:57.481Z,58.10
2023-05-20T18:30:00.228Z,58.04
2023-05-20T18:33:02.826Z,58.05
2023-05-20T18:36:06.973Z,58.12
2023-05-20T18:39:10.125Z,58.19
2023-05-20T18:42:13.393Z,58.20
2023-05-20T18:45:16.209Z,58.12
2023-05-20T18:48:26.144Z,58.18
2023-05-20T18:51:33.220Z,58.06
2023-05-20T18:54:35.902Z,58.25
2023-05-20T18:57:39.809Z,58.39
2023-05-20T19:00:42.413Z,58.29
2023-05-20T19:03:45.616Z,58.15
2023-05-20T19:06:48.216Z,58.15
2023-05-20T19:09:52.107Z,58.41
2023-05-20T19:12:54.673Z,58.11
2023-05-20T19:16:00.028Z,58.33
2023-05-20T19:19:02.518Z,58.44
2023-05-20T19:22:05.206Z,58.75
2023-05-20T19:25:07.806Z,58.40
2023-05-20T19:28:12.173Z,58.52
2023-05-20T19:31:21.034Z,58.23
2023-05-20T19:34:25.008Z,58.48
2023-05-20T19:37:28.784Z,58.78
2023-05-20T19:40:31.330Z,58.65
2023-05-20T19:43:34.000Z,59.00
2023-05-20T19:46:36.700Z,58.96
2023-05-20T19:49:39.345Z,58.91
2023-05-20T19:52:41.876Z,58.95
2023-05-20T19:55:44.339Z,58.92
2023-05-20T19:58:48.116Z,59.10
2023-05-20T20:01:51.605Z,59.19
2023-05-20T20:04:55.359Z,59.03
2023-05-20T20:07:59.162Z,59.18
2023-05-20T20:11:02.090Z,59.24
2023-05-20T20:14:04.623Z,59.40
2023-05-20T20:17:07.055Z,59.41
2023-05-20T20:20:14.047Z,59.32
2023-05-20T20:23:16.764Z,59.45
2023-05-20T20:26:22.752Z,59.24
2023-05-20T20:29:25.679Z,59.83
2023-05-20T20:32:28.318Z,59.79
2023-05-20T20:35:32.185Z,59.54
2023-05-20T20:38:34.824Z,59.36
2023-05-20T20:41:38.791Z,59.85
2023-05-20T20:44:42.808Z,59.82
2023-05-20T20:47:45.388Z,59.82
2023-05-20T20:50:48.450Z,60.02
2023-05-20T20:53:52.248Z,60.02
2023-05-20T20:56:56.905Z,59.91
2023-05-20T20:59:59.478Z,59.97
2023-05-20T21:03:02.164Z,60.24
2023-05-20T21:06:04.727Z,60.01
2023-05-20T21:09:07.589Z,60.10
2023-05-20T21:12:10.105Z,60.10
2023-05-20T21:15:12.987Z,60.34
2023-05-20T21:18:21.989Z,60.18
2023-05-20T21:21:24.518Z,60.51
2023-05-20T21:24:26.975Z,60.12
2023-05-20T21:27:29.453Z,60.38
2023-05-20T21:30:32.208Z,60.22
2023-05-20T21:33:34.952Z,60.52
2023-05-20T21:36:37.372Z,60.54
2023-05-20T21:39:39.888Z,60.55
2023-05-20T21:42:42.304Z,60.50
2023-05-20T21:45:45.872Z,60.76
2023-05-20T21:48:48.298Z,60.52
2023-05-20T21:51:52.184Z,60.72
2023-05-20T21:54:54.606Z,60.73
2023-05-20T21:57:57.054Z,60.68
2023-05-20T22:00:59.438Z,60.73
2023-05-20T22:04:03.378Z,60.93
2023-05-20T22:07:06.256Z,61.07
2023-05-20T22:10:13.836Z,61.06
2023-05-20T22:13:17.308Z,60.99
2023-05-20T22:16:19.773Z,60.78
2023-05-20T22:19:23.686Z,60.88
2023-05-20T22:22:26.525Z,61.11
2023-05-20T22:25:32.381Z,61.12
2023-05-20T22:28:35.454Z,61.36
2023-05-20T22:31:38.186Z,61.17
2023-05-20T22:34:45.294Z,61.01
2023-05-20T22:37:49.057Z,61.21
2023-05-20T22:40:51.582Z,61.44
2023-05-20T22:43:54.170Z,61.33
2023-05-20T22:46:57.000Z,61.38
2023-05-20T22:50:02.640Z,61.25
2023-05-20T22:53:05.512Z,61.34
2023-05-20T22:56:08.001Z,61.83
2023-05-20T22:59:10.598Z,61.69
2023-05-20T23:02:25.468Z,61.57
2023-05-20T23:05:30.471Z,61.62
2023-05-20T23:08:33.393Z,61.62
2023-05-20T23:11:35.911Z,61.65
2023-05-20T23:14:38.887Z,61.73
2023-05-20T23:17:41.515Z,61.86
2023-05-20T23:20:44.229Z,61.64
2023-05-20T23:23:46.721Z,61.64
2023-05-20T23:26:49.269Z,61.99
2023-05-20T23:29:51.700Z,62.04
2023-05-20T23:32:54.206Z,61.56
2023-05-20T23:35:57.154Z,61.83
2023-05-20T23:38:59.625Z,62.00
2023-05-20T23:42:02.462Z,61.91
2023-05-20T23:45:05.666Z,62.14
2023-05-20T23:48:13.320Z,61.74
2023-05-20T23:51:16.755Z,61.86
2023-05-20T23:54:20.411Z,61.92
2023-05-20T23:57:22.881Z,62.01
